createdAt,value
2019-04-30T00:01:55.568Z,53.70
2019-04-30T00:04:29.806Z,52.20
2019-04-30T00:07:00.161Z,52.80
2019-04-30T00:09:31.099Z,55.35
2019-04-30T00:12:01.514Z,60.92
2019-04-30T00:14:38.586Z,50.08
2019-04-30T00:17:10.633Z,54.08
2019-04-30T00:19:38.618Z,53.30
2019-04-30T00:22:08.820Z,54.70
2019-04-30T00:24:39.915Z,52.27
2019-04-30T00:27:11.084Z,60.50
2019-04-30T00:29:41.957Z,53.23
2019-04-30T00:32:12.800Z,56.58
2019-04-30T00:34:43.152Z,64.55
2019-04-30T00:37:18.697Z,56.15
2019-04-30T00:39:50.869Z,58.95
2019-04-30T00:42:24.373Z,64.82
2019-04-30T00:44:51.500Z,62.38
2019-04-30T00:47:22.168Z,62.93
2019-04-30T00:49:58.838Z,61.25
2019-04-30T00:52:25.397Z,62.35
2019-04-30T00:55:00.447Z,61.20
2019-04-30T00:57:30.075Z,61.48
2019-04-30T01:00:00.455Z,63.65
2019-04-30T01:02:32.425Z,58.63
2019-04-30T01:05:06.179Z,60.23
2019-04-30T01:07:40.076Z,60.03
2019-04-30T01:10:10.595Z,63.68
2019-04-30T01:12:44.945Z,59.40
2019-04-30T01:15:14.658Z,61.70
2019-04-30T01:17:50.219Z,60.12
2019-04-30T01:20:24.081Z,64.67
2019-04-30T01:22:52.409Z,62.10
2019-04-30T01:25:22.827Z,66.10
2019-04-30T01:27:53.749Z,65.83
2019-04-30T01:30:24.202Z,65.92
2019-04-30T01:32:56.840Z,64.07
2019-04-30T01:35:31.325Z,61.60
2019-04-30T01:38:04.102Z,59.60
2019-04-30T01:40:32.561Z,63.35
2019-04-30T01:43:04.298Z,62.27
2019-04-30T01:45:34.706Z,60.65
2019-04-30T01:48:08.848Z,61.75
2019-04-30T01:50:41.956Z,56.90
2019-04-30T01:53:13.089Z,55.55
2019-04-30T01:55:43.622Z,55.75
2019-04-30T01:58:30.186Z,55.58
2019-04-30T02:01:06.209Z,54.53
2019-04-30T02:03:36.526Z,55.85
2019-04-30T02:06:06.980Z,51.42
2019-04-30T02:08:37.200Z,64.67
2019-04-30T02:11:09.045Z,60.15
2019-04-30T02:13:39.996Z,58.25
2019-04-30T02:16:10.627Z,53.70
2019-04-30T02:18:40.954Z,59.63
2019-04-30T02:21:11.455Z,57.98
2019-04-30T02:23:42.492Z,53.83
2019-04-30T02:26:13.323Z,63.25
2019-04-30T02:28:43.561Z,57.93
2019-04-30T02:31:13.808Z,60.63
2019-04-30T02:33:45.690Z,56.00
2019-04-30T02:36:25.018Z,54.25
2019-04-30T02:39:02.267Z,54.70
2019-04-30T02:41:29.958Z,62.35
2019-04-30T02:44:01.582Z,61.05
2019-04-30T02:46:33.916Z,61.53
2019-04-30T02:49:06.936Z,58.13
2019-04-30T02:51:40.185Z,59.05
2019-04-30T02:54:22.930Z,54.98
2019-04-30T02:56:52.017Z,57.13
2019-04-30T02:59:22.331Z,67.35
2019-04-30T03:01:52.569Z,65.32
2019-04-30T03:04:22.772Z,65.95
2019-04-30T03:06:53.020Z,57.03
2019-04-30T03:09:24.774Z,61.83
2019-04-30T03:11:55.423Z,59.27
2019-04-30T03:14:26.073Z,60.45
2019-04-30T03:17:00.095Z,63.38
2019-04-30T03:19:32.079Z,58.95
2019-04-30T03:22:06.790Z,58.30
2019-04-30T03:24:42.310Z,57.75
2019-04-30T03:27:09.632Z,63.48
2019-04-30T03:29:41.277Z,60.70
2019-04-30T03:32:13.748Z,58.92
2019-04-30T03:34:43.884Z,58.10
2019-04-30T03:37:14.471Z,57.35
2019-04-30T03:39:44.786Z,56.98
2019-04-30T03:42:15.770Z,55.40
2019-04-30T03:44:46.389Z,55.30
2019-04-30T03:47:20.161Z,60.17
2019-04-30T03:49:51.970Z,52.15
2019-04-30T03:52:22.190Z,53.60
2019-04-30T03:54:52.793Z,59.13
2019-04-30T03:57:23.081Z,56.98
2019-04-30T03:59:53.567Z,54.03
2019-04-30T04:02:37.240Z,56.15
2019-04-30T04:05:14.286Z,52.80
2019-04-30T04:07:52.941Z,49.35
2019-04-30T04:10:32.588Z,48.48
2019-04-30T04:13:02.907Z,47.25
2019-04-30T04:15:33.506Z,49.67
2019-04-30T04:18:03.776Z,49.85
2019-04-30T04:20:34.089Z,50.45
2019-04-30T04:23:04.386Z,44.40
2019-04-30T04:25:35.042Z,44.05
2019-04-30T04:28:05.823Z,40.17
2019-04-30T04:30:36.502Z,38.20
2019-04-30T04:33:10.076Z,38.95
2019-04-30T04:35:39.532Z,33.78
2019-04-30T04:38:12.712Z,35.17
2019-04-30T04:40:42.292Z,32.48
2019-04-30T04:43:12.876Z,30.27
2019-04-30T04:45:43.734Z,32.48
2019-04-30T04:48:14.920Z,27.50
2019-04-30T04:50:45.663Z,27.70
2019-04-30T04:53:16.373Z,28.38
2019-04-30T04:55:47.025Z,30.15
2019-04-30T04:58:21.534Z,27.87
2019-04-30T05:00:49.768Z,29.80
2019-04-30T05:03:21.630Z,29.77
2019-04-30T05:05:51.865Z,28.60
2019-04-30T05:08:22.502Z,23.22
2019-04-30T05:10:52.820Z,29.23
2019-04-30T05:13:23.034Z,27.60
2019-04-30T05:15:54.660Z,27.05
2019-04-30T05:18:25.599Z,28.05
2019-04-30T05:20:55.824Z,30.48
2019-04-30T05:23:26.180Z,30.62
2019-04-30T05:25:58.841Z,26.20
2019-04-30T05:28:30.247Z,25.75
2019-04-30T05:31:00.758Z,27.80
2019-04-30T05:33:30.998Z,30.20
2019-04-30T05:36:01.617Z,25.55
2019-04-30T05:38:31.920Z,26.20
2019-04-30T05:41:02.136Z,27.55
2019-04-30T05:43:32.422Z,28.10
2019-04-30T05:46:02.710Z,28.70
2019-04-30T05:48:33.020Z,25.80
2019-04-30T05:51:03.291Z,23.55
2019-04-30T05:53:33.521Z,23.40
2019-04-30T05:56:03.851Z,27.13
2019-04-30T05:58:34.052Z,24.77
2019-04-30T06:01:04.279Z,32.78
2019-04-30T06:03:35.509Z,24.95
2019-04-30T06:06:05.822Z,21.95
2019-04-30T06:08:40.509Z,22.73
2019-04-30T06:11:15.747Z,23.02
2019-04-30T06:13:53.365Z,24.40
2019-04-30T06:16:25.315Z,21.05
2019-04-30T06:18:55.539Z,25.45
2019-04-30T06:21:25.781Z,22.15
2019-04-30T06:23:59.081Z,19.75
2019-04-30T06:26:30.362Z,22.32
2019-04-30T06:29:00.823Z,26.68
2019-04-30T06:31:37.121Z,18.82
2019-04-30T06:34:04.001Z,22.77
2019-04-30T06:36:34.495Z,22.75
2019-04-30T06:39:06.462Z,19.12
2019-04-30T06:41:36.782Z,22.82
2019-04-30T06:44:07.083Z,21.15
2019-04-30T06:46:38.711Z,18.00
2019-04-30T06:49:09.597Z,20.57
2019-04-30T06:51:40.289Z,18.25
2019-04-30T06:54:11.094Z,17.23
2019-04-30T06:56:42.438Z,19.05
2019-04-30T06:59:12.833Z,15.10
2019-04-30T07:01:43.030Z,23.15
2019-04-30T07:04:13.622Z,16.75
2019-04-30T07:06:45.277Z,16.25
2019-04-30T07:09:34.814Z,14.63
2019-04-30T07:12:04.838Z,15.53
2019-04-30T07:14:41.406Z,19.42
2019-04-30T07:17:10.490Z,17.05
2019-04-30T07:19:53.340Z,17.65
2019-04-30T07:22:13.586Z,20.05
2019-04-30T07:24:43.837Z,17.87
2019-04-30T07:27:14.475Z,16.77
2019-04-30T07:29:45.343Z,18.80
2019-04-30T07:32:16.011Z,16.15
2019-04-30T07:34:46.662Z,16.07
2019-04-30T07:37:23.911Z,15.50
2019-04-30T07:39:49.465Z,25.35
2019-04-30T07:42:19.963Z,17.40
2019-04-30T07:44:50.411Z,15.70
2019-04-30T07:47:21.298Z,15.20
2019-04-30T07:49:55.603Z,13.38
2019-04-30T07:52:24.503Z,14.23
2019-04-30T07:54:55.590Z,16.52
2019-04-30T07:57:26.218Z,13.93
2019-04-30T07:59:57.103Z,15.30
2019-04-30T08:02:29.755Z,13.00
2019-04-30T08:05:10.499Z,16.60
2019-04-30T08:07:40.392Z,15.05
2019-04-30T08:10:11.091Z,17.55
2019-04-30T08:12:43.385Z,19.50
2019-04-30T08:15:14.463Z,14.55
2019-04-30T08:17:44.858Z,11.30
2019-04-30T08:20:15.995Z,15.25
2019-04-30T08:22:47.038Z,15.10
2019-04-30T08:25:21.991Z,13.30
2019-04-30T08:27:52.457Z,15.05
2019-04-30T08:30:26.687Z,11.38
2019-04-30T08:32:54.695Z,16.35
2019-04-30T08:35:24.959Z,13.30
2019-04-30T08:37:55.192Z,22.17
2019-04-30T08:40:25.426Z,17.48
2019-04-30T08:42:56.011Z,16.42
2019-04-30T08:45:26.796Z,16.90
2019-04-30T08:47:59.038Z,15.30
2019-04-30T08:50:30.102Z,15.15
2019-04-30T08:53:01.220Z,16.12
2019-04-30T08:55:31.907Z,10.78
2019-04-30T08:58:09.859Z,16.30
2019-04-30T09:00:35.060Z,10.43
2019-04-30T09:03:05.409Z,19.32
2019-04-30T09:05:35.815Z,10.15
2019-04-30T09:08:09.519Z,12.58
2019-04-30T09:10:39.754Z,13.43
2019-04-30T09:13:11.892Z,13.45
2019-04-30T09:15:42.594Z,18.42
2019-04-30T09:18:13.028Z,14.95
2019-04-30T09:20:46.082Z,18.98
2019-04-30T09:23:16.363Z,20.02
2019-04-30T09:25:46.587Z,20.65
2019-04-30T09:28:19.824Z,14.40
2019-04-30T09:30:50.689Z,14.85
2019-04-30T09:33:21.575Z,18.98
2019-04-30T09:35:52.310Z,19.00
2019-04-30T09:38:23.023Z,13.40
2019-04-30T09:40:53.314Z,11.28
2019-04-30T09:43:23.909Z,12.82
2019-04-30T09:45:56.093Z,15.05
2019-04-30T09:48:30.320Z,14.87
2019-04-30T09:51:01.057Z,16.70
2019-04-30T09:53:32.626Z,22.33
2019-04-30T09:56:19.346Z,21.45
2019-04-30T09:58:50.839Z,16.30
2019-04-30T10:01:22.161Z,16.20
2019-04-30T10:04:05.543Z,16.35
2019-04-30T10:06:40.089Z,15.80
2019-04-30T10:09:11.064Z,13.35
2019-04-30T10:11:50.118Z,16.95
2019-04-30T10:14:21.218Z,11.68
2019-04-30T10:17:10.702Z,13.25
2019-04-30T10:19:40.915Z,14.63
2019-04-30T10:22:11.237Z,14.07
2019-04-30T10:24:41.564Z,12.95
2019-04-30T10:27:13.420Z,13.90
2019-04-30T10:29:44.608Z,19.77
2019-04-30T10:32:14.850Z,22.75
2019-04-30T10:34:45.127Z,12.73
2019-04-30T10:37:15.942Z,15.08
2019-04-30T10:39:48.797Z,13.95
2019-04-30T10:42:20.143Z,11.83
2019-04-30T10:44:50.875Z,15.05
2019-04-30T10:47:21.897Z,18.42
2019-04-30T10:49:53.274Z,12.03
2019-04-30T10:52:23.808Z,14.33
2019-04-30T10:54:54.070Z,14.78
2019-04-30T10:57:24.765Z,17.00
2019-04-30T10:59:55.117Z,19.50
2019-04-30T11:02:25.679Z,18.52
2019-04-30T11:04:56.006Z,12.10
2019-04-30T11:07:28.853Z,19.27
2019-04-30T11:09:59.617Z,12.90
2019-04-30T11:12:30.081Z,29.05
2019-04-30T11:15:00.347Z,16.90
2019-04-30T11:17:33.221Z,15.50
2019-04-30T11:20:05.221Z,14.78
2019-04-30T11:22:35.911Z,17.07
2019-04-30T11:25:10.661Z,14.18
2019-04-30T11:27:41.995Z,13.93
2019-04-30T11:30:23.342Z,16.32
2019-04-30T11:32:46.335Z,32.42
2019-04-30T11:35:18.517Z,31.52
2019-04-30T11:37:49.773Z,15.80
2019-04-30T11:40:33.915Z,23.98
2019-04-30T11:42:58.785Z,22.55
2019-04-30T11:45:48.827Z,12.82
2019-04-30T11:48:19.544Z,20.08
2019-04-30T11:50:50.355Z,18.35
2019-04-30T11:53:25.426Z,14.93
2019-04-30T11:55:53.206Z,28.95
2019-04-30T11:58:23.767Z,16.50
2019-04-30T12:00:55.747Z,15.25
2019-04-30T12:03:26.027Z,12.80
2019-04-30T12:05:58.832Z,15.72
2019-04-30T12:08:30.882Z,20.88
2019-04-30T12:11:10.684Z,27.25
2019-04-30T12:13:41.348Z,15.48
2019-04-30T12:16:12.232Z,13.35
2019-04-30T12:18:42.960Z,17.67
2019-04-30T12:21:13.266Z,16.45
2019-04-30T12:23:43.943Z,20.17
2019-04-30T12:26:14.549Z,11.50
2019-04-30T12:28:44.797Z,14.23
2019-04-30T12:31:15.040Z,14.13
2019-04-30T12:33:45.337Z,13.83
2019-04-30T12:36:16.557Z,14.05
2019-04-30T12:38:47.224Z,12.65
2019-04-30T12:41:17.627Z,16.00
2019-04-30T12:43:48.199Z,13.93
2019-04-30T12:46:21.251Z,18.05
2019-04-30T12:48:52.581Z,19.67
2019-04-30T12:51:30.871Z,21.25
2019-04-30T12:54:05.947Z,15.43
2019-04-30T12:56:47.069Z,15.28
2019-04-30T12:59:17.751Z,12.37
2019-04-30T13:01:49.567Z,15.43
2019-04-30T13:04:20.422Z,13.22
2019-04-30T13:06:51.632Z,19.07
2019-04-30T13:09:23.620Z,11.12
2019-04-30T13:11:54.969Z,15.32
2019-04-30T13:14:26.650Z,11.22
2019-04-30T13:16:58.993Z,16.82
2019-04-30T13:19:30.151Z,15.50
2019-04-30T13:22:00.913Z,12.55
2019-04-30T13:24:31.574Z,25.55
2019-04-30T13:27:01.925Z,15.75
2019-04-30T13:29:36.554Z,13.13
2019-04-30T13:32:08.540Z,21.73
2019-04-30T13:34:52.568Z,16.05
2019-04-30T13:37:23.224Z,18.87
2019-04-30T13:40:11.171Z,16.10
2019-04-30T13:42:49.053Z,16.57
2019-04-30T13:45:20.773Z,11.57
2019-04-30T13:47:51.583Z,16.45
2019-04-30T13:50:22.675Z,10.08
2019-04-30T13:52:53.359Z,14.35
2019-04-30T13:55:24.406Z,11.85
2019-04-30T13:57:55.180Z,18.05
2019-04-30T14:00:27.242Z,14.00
2019-04-30T14:03:09.249Z,22.13
2019-04-30T14:05:39.669Z,21.52
2019-04-30T14:08:28.970Z,13.72
2019-04-30T14:11:00.506Z,15.13
2019-04-30T14:13:30.710Z,13.58
2019-04-30T14:16:01.514Z,23.95
2019-04-30T14:18:34.207Z,23.27
2019-04-30T14:21:04.086Z,31.27
2019-04-30T14:23:34.786Z,15.55
2019-04-30T14:26:05.784Z,21.42
2019-04-30T14:28:36.402Z,13.03
2019-04-30T14:31:07.352Z,14.13
2019-04-30T14:33:40.023Z,15.38
2019-04-30T14:36:10.381Z,11.70
2019-04-30T14:38:40.767Z,16.70
2019-04-30T14:41:11.632Z,14.10
2019-04-30T14:43:47.661Z,13.70
2019-04-30T14:46:34.742Z,11.60
2019-04-30T14:49:09.921Z,15.32
2019-04-30T14:51:39.603Z,32.55
2019-04-30T14:54:19.941Z,18.17
2019-04-30T14:57:01.273Z,60.33
2019-04-30T14:59:52.200Z,17.25
2019-04-30T15:02:31.093Z,16.70
2019-04-30T15:05:01.305Z,15.08
2019-04-30T15:07:31.953Z,12.95
2019-04-30T15:10:05.794Z,15.90
2019-04-30T15:12:36.581Z,15.53
2019-04-30T15:15:09.192Z,14.65
2019-04-30T15:17:44.572Z,20.20
2019-04-30T15:20:16.435Z,15.55
2019-04-30T15:22:54.843Z,15.32
2019-04-30T15:25:25.569Z,22.48
2019-04-30T15:27:56.312Z,22.20
2019-04-30T15:30:28.917Z,19.00
2019-04-30T15:33:10.288Z,21.27
2019-04-30T15:35:41.302Z,14.47
2019-04-30T15:38:11.869Z,12.03
2019-04-30T15:40:42.346Z,31.20
2019-04-30T15:43:13.064Z,20.62
2019-04-30T15:45:43.563Z,12.07
2019-04-30T15:48:14.392Z,15.85
2019-04-30T15:50:49.071Z,16.35
2019-04-30T15:53:19.440Z,13.10
2019-04-30T15:55:49.797Z,21.93
2019-04-30T15:58:22.238Z,13.88
2019-04-30T16:00:54.489Z,14.90
2019-04-30T16:03:29.852Z,13.58
2019-04-30T16:06:00.177Z,18.98
2019-04-30T16:08:32.031Z,18.05
2019-04-30T16:11:10.574Z,20.57
2019-04-30T16:13:45.534Z,19.42
2019-04-30T16:16:15.787Z,18.85
2019-04-30T16:18:50.628Z,12.50
2019-04-30T16:21:22.553Z,18.23
2019-04-30T16:23:52.856Z,16.17
2019-04-30T16:26:23.437Z,16.97
2019-04-30T16:28:54.153Z,15.75
2019-04-30T16:31:24.878Z,19.80
2019-04-30T16:33:55.226Z,25.97
2019-04-30T16:36:25.493Z,18.32
2019-04-30T16:38:55.795Z,19.12
2019-04-30T16:41:31.693Z,23.02
2019-04-30T16:43:59.385Z,20.62
2019-04-30T16:46:31.985Z,18.80
2019-04-30T16:49:02.642Z,30.68
2019-04-30T16:51:33.278Z,22.77
2019-04-30T16:54:04.428Z,20.90
2019-04-30T16:56:34.701Z,21.27
2019-04-30T16:59:12.649Z,17.35
2019-04-30T17:01:42.982Z,21.27
2019-04-30T17:04:25.609Z,17.30
2019-04-30T17:07:03.495Z,27.52
2019-04-30T17:09:36.860Z,25.17
2019-04-30T17:12:08.774Z,26.48
2019-04-30T17:14:40.795Z,23.35
2019-04-30T17:17:11.433Z,40.73
2019-04-30T17:19:41.759Z,23.87
2019-04-30T17:22:12.331Z,31.57
2019-04-30T17:24:42.663Z,30.60
2019-04-30T17:27:19.392Z,26.50
2019-04-30T17:29:45.497Z,24.98
2019-04-30T17:32:15.963Z,22.73
2019-04-30T17:34:46.178Z,17.82
2019-04-30T17:37:16.742Z,29.25
2019-04-30T17:39:47.024Z,26.57
2019-04-30T17:42:18.956Z,21.50
2019-04-30T17:44:56.814Z,23.73
2019-04-30T17:47:21.122Z,22.82
2019-04-30T17:49:51.430Z,27.90
2019-04-30T17:52:23.288Z,21.62
2019-04-30T17:54:53.635Z,21.65
2019-04-30T17:57:33.327Z,18.05
2019-04-30T17:59:59.163Z,24.23
2019-04-30T18:02:30.958Z,25.52
2019-04-30T18:05:01.891Z,27.62
2019-04-30T18:07:32.486Z,26.77
2019-04-30T18:10:08.679Z,21.77
2019-04-30T18:12:39.832Z,24.30
2019-04-30T18:15:15.777Z,27.48
2019-04-30T18:18:00.359Z,38.92
2019-04-30T18:20:44.999Z,40.73
2019-04-30T18:23:19.469Z,42.58
2019-04-30T18:28:21.388Z,42.08
2019-04-30T18:30:52.027Z,59.23
2019-04-30T18:33:22.734Z,46.35
2019-04-30T18:35:53.023Z,39.30
2019-04-30T18:38:23.349Z,49.30
2019-04-30T18:40:53.608Z,47.23
2019-04-30T18:43:24.311Z,40.00
2019-04-30T18:45:55.301Z,48.35
2019-04-30T18:48:25.593Z,45.80
2019-04-30T18:50:56.217Z,42.73
2019-04-30T18:53:28.709Z,45.43
2019-04-30T18:55:59.555Z,47.38
2019-04-30T18:58:39.864Z,40.00
2019-04-30T19:01:05.173Z,46.53
2019-04-30T19:03:36.842Z,35.85
2019-04-30T19:06:22.850Z,37.42
2019-04-30T19:08:53.993Z,35.55
2019-04-30T19:11:28.962Z,41.68
2019-04-30T19:14:01.760Z,54.20
2019-04-30T19:16:33.704Z,53.75
2019-04-30T19:19:12.866Z,54.83
2019-04-30T19:21:43.459Z,72.27
2019-04-30T19:24:14.190Z,45.17
2019-04-30T19:26:44.514Z,56.00
2019-04-30T19:29:15.388Z,61.75
2019-04-30T19:31:45.754Z,67.65
2019-04-30T19:34:15.966Z,66.70
2019-04-30T19:36:46.208Z,48.90
2019-04-30T19:39:19.496Z,54.23
2019-04-30T19:41:49.754Z,56.73
2019-04-30T19:44:20.921Z,43.85
2019-04-30T19:46:51.751Z,40.48
2019-04-30T19:49:22.121Z,60.30
2019-04-30T19:52:05.605Z,58.08
2019-04-30T19:54:24.751Z,70.65
2019-04-30T19:56:55.379Z,66.17
2019-04-30T19:59:26.789Z,60.83
2019-04-30T20:01:59.434Z,56.42
2019-04-30T20:04:35.594Z,71.07
2019-04-30T20:07:02.193Z,73.47
2019-04-30T20:09:32.631Z,77.15
2019-04-30T20:12:03.021Z,85.80
2019-04-30T20:14:33.280Z,72.75
2019-04-30T20:17:03.891Z,70.37
2019-04-30T20:19:34.499Z,65.50
2019-04-30T20:22:05.144Z,70.25
2019-04-30T20:24:35.374Z,69.35
2019-04-30T20:27:07.982Z,79.53
2019-04-30T20:29:37.877Z,68.02
2019-04-30T20:32:08.704Z,64.37
2019-04-30T20:34:39.464Z,65.42
2019-04-30T20:37:09.757Z,75.52
2019-04-30T20:39:50.792Z,67.05
2019-04-30T20:42:22.221Z,62.35
2019-04-30T20:44:52.805Z,70.78
2019-04-30T20:47:23.547Z,71.05
2019-04-30T20:49:53.835Z,78.83
2019-04-30T20:52:24.462Z,65.50
2019-04-30T20:54:55.186Z,73.20
2019-04-30T20:57:25.463Z,71.45
2019-04-30T20:59:59.851Z,66.07
2019-04-30T21:02:29.919Z,74.82
2019-04-30T21:05:03.006Z,72.45
2019-04-30T21:07:35.333Z,89.37
2019-04-30T21:10:10.166Z,71.47
2019-04-30T21:12:41.086Z,76.53
2019-04-30T21:15:13.600Z,79.12
2019-04-30T21:17:44.596Z,87.55
2019-04-30T21:20:19.486Z,77.97
2019-04-30T21:22:50.437Z,80.42
2019-04-30T21:25:20.880Z,76.97
2019-04-30T21:27:52.129Z,78.72
2019-04-30T21:30:23.074Z,82.08
2019-04-30T21:32:55.031Z,72.30
2019-04-30T21:35:31.411Z,86.37
2019-04-30T21:38:02.762Z,76.53
2019-04-30T21:40:33.563Z,83.25
2019-04-30T21:43:05.371Z,82.90
2019-04-30T21:45:37.082Z,91.97
2019-04-30T21:48:09.127Z,74.72
2019-04-30T21:50:39.888Z,79.15
2019-04-30T21:53:12.005Z,83.15
2019-04-30T21:55:42.271Z,70.12
2019-04-30T21:58:12.864Z,77.37
2019-04-30T22:00:43.735Z,68.05
2019-04-30T22:03:15.649Z,75.83
2019-04-30T22:05:46.711Z,80.12
2019-04-30T22:08:18.918Z,67.87
2019-04-30T22:10:49.329Z,76.47
2019-04-30T22:13:19.599Z,66.55
2019-04-30T22:15:50.223Z,79.20
2019-04-30T22:18:21.005Z,75.40
2019-04-30T22:20:51.409Z,64.17
2019-04-30T22:23:21.632Z,63.87
2019-04-30T22:25:51.853Z,67.87
2019-04-30T22:28:22.595Z,57.67
2019-04-30T22:30:52.826Z,57.35
2019-04-30T22:33:23.052Z,63.68
2019-04-30T22:35:56.342Z,60.28
2019-04-30T22:38:39.061Z,65.90
2019-04-30T22:41:09.052Z,52.40
2019-04-30T22:43:40.658Z,45.75
2019-04-30T22:46:15.676Z,49.08
2019-04-30T22:48:45.918Z,49.98
2019-04-30T22:51:16.537Z,47.15
2019-04-30T22:53:47.169Z,39.50
2019-04-30T22:56:17.689Z,47.60
2019-04-30T22:58:47.924Z,44.27
2019-04-30T23:01:19.929Z,49.88
2019-04-30T23:03:52.176Z,47.58
2019-04-30T23:06:22.573Z,45.85
2019-04-30T23:08:53.174Z,47.40
2019-04-30T23:11:23.432Z,48.30
2019-04-30T23:13:54.051Z,53.45
2019-04-30T23:16:24.668Z,46.53
2019-04-30T23:18:54.976Z,41.77
2019-04-30T23:21:26.625Z,40.17
2019-04-30T23:23:57.258Z,39.53
2019-04-30T23:26:27.916Z,36.80
2019-04-30T23:28:58.273Z,42.17
2019-04-30T23:31:28.854Z,45.33
2019-04-30T23:33:59.133Z,48.75
2019-04-30T23:36:29.390Z,54.33
2019-04-30T23:39:00.170Z,51.77
2019-04-30T23:41:32.083Z,56.60
2019-04-30T23:44:02.281Z,49.75
2019-04-30T23:46:32.516Z,53.17
2019-04-30T23:49:03.179Z,53.63
2019-04-30T23:51:33.825Z,51.18
2019-04-30T23:54:04.545Z,50.70
2019-04-30T23:56:34.900Z,50.33
2019-04-30T23:59:05.519Z,53.50
